createdAt,value
2022-10-23T00:02:07.627Z,1.08
2022-10-23T00:04:35.359Z,1.10
2022-10-23T00:07:03.312Z,1.23
2022-10-23T00:09:30.931Z,1.17
2022-10-23T00:11:58.562Z,1.20
2022-10-23T00:14:26.250Z,1.23
2022-10-23T00:16:53.926Z,1.10
2022-10-23T00:19:22.906Z,1.40
2022-10-23T00:21:50.540Z,1.60
2022-10-23T00:24:18.667Z,1.55
2022-10-23T00:26:46.339Z,1.20
2022-10-23T00:29:13.984Z,1.33
2022-10-23T00:31:42.045Z,1.47
2022-10-23T00:34:09.757Z,1.25
2022-10-23T00:36:38.916Z,1.47
2022-10-23T00:39:06.731Z,1.20
2022-10-23T00:41:34.748Z,1.45
2022-10-23T00:44:05.026Z,1.20
2022-10-23T00:46:32.850Z,1.33
2022-10-23T00:49:01.148Z,1.47
2022-10-23T00:51:30.476Z,1.25
2022-10-23T00:54:06.539Z,1.30
2022-10-23T00:56:47.675Z,1.20
2022-10-23T00:59:15.449Z,1.20
2022-10-23T01:01:43.451Z,1.30
2022-10-23T01:04:11.408Z,1.38
2022-10-23T01:06:44.631Z,1.30
2022-10-23T01:09:16.711Z,1.13
2022-10-23T01:11:47.065Z,1.17
2022-10-23T01:14:19.393Z,1.10
2022-10-23T01:16:49.653Z,1.05
2022-10-23T01:19:21.133Z,1.20
2022-10-23T01:21:55.001Z,1.13
2022-10-23T01:24:32.377Z,1.38
2022-10-23T01:27:18.319Z,1.05
2022-10-23T01:29:48.891Z,1.33
2022-10-23T01:32:20.088Z,1.48
2022-10-23T01:34:49.765Z,1.27
2022-10-23T01:37:20.908Z,1.20
2022-10-23T01:39:50.954Z,1.20
2022-10-23T01:42:20.796Z,1.30
2022-10-23T01:44:51.693Z,1.20
2022-10-23T01:47:22.498Z,1.35
2022-10-23T01:49:57.029Z,1.70
2022-10-23T01:52:25.091Z,1.23
2022-10-23T01:54:55.891Z,1.20
2022-10-23T01:57:24.191Z,1.50
2022-10-23T01:59:57.262Z,1.33
2022-10-23T02:02:25.738Z,1.50
2022-10-23T02:04:57.028Z,1.63
2022-10-23T02:07:24.889Z,1.23
2022-10-23T02:09:53.603Z,1.50
2022-10-23T02:14:58.045Z,1.50
2022-10-23T02:17:29.222Z,1.20
2022-10-23T02:19:59.180Z,1.20
2022-10-23T02:22:28.856Z,1.07
2022-10-23T02:24:59.352Z,1.23
2022-10-23T02:27:32.832Z,1.20
2022-10-23T02:30:04.504Z,1.30
2022-10-23T02:32:33.701Z,1.38
2022-10-23T02:35:01.701Z,1.03
2022-10-23T02:37:29.540Z,1.30
2022-10-23T02:39:57.399Z,1.07
2022-10-23T02:42:27.752Z,1.20
2022-10-23T02:44:57.586Z,1.00
2022-10-23T02:47:33.142Z,1.33
2022-10-23T02:50:04.322Z,0.98
2022-10-23T02:52:38.627Z,1.20
2022-10-23T02:55:11.601Z,1.20
2022-10-23T02:57:52.239Z,1.20
2022-10-23T03:00:21.040Z,1.27
2022-10-23T03:02:54.964Z,1.30
2022-10-23T03:05:24.717Z,1.30
2022-10-23T03:07:52.769Z,1.13
2022-10-23T03:10:20.771Z,1.10
2022-10-23T03:12:48.859Z,1.37
2022-10-23T03:15:17.716Z,1.25
2022-10-23T03:17:45.343Z,1.40
2022-10-23T03:20:17.543Z,1.30
2022-10-23T03:22:46.292Z,1.52
2022-10-23T03:25:15.164Z,1.40
2022-10-23T03:27:42.873Z,1.65
2022-10-23T03:30:12.950Z,1.30
2022-10-23T03:32:41.705Z,1.40
2022-10-23T03:35:09.893Z,1.30
2022-10-23T03:37:39.906Z,1.50
2022-10-23T03:40:08.275Z,1.40
2022-10-23T03:42:36.019Z,1.10
2022-10-23T03:45:03.766Z,1.40
2022-10-23T03:47:32.381Z,1.40
2022-10-23T03:50:01.334Z,1.80
2022-10-23T03:52:28.990Z,1.10
2022-10-23T03:54:57.912Z,1.57
2022-10-23T03:57:25.691Z,1.20
2022-10-23T03:59:53.572Z,1.35
2022-10-23T04:02:21.516Z,1.57
2022-10-23T04:04:49.473Z,1.38
2022-10-23T04:07:17.156Z,1.17
2022-10-23T04:09:46.181Z,1.47
2022-10-23T04:12:18.259Z,1.37
2022-10-23T04:14:45.935Z,1.67
2022-10-23T04:17:13.689Z,1.50
2022-10-23T04:19:43.689Z,1.27
2022-10-23T04:22:11.324Z,1.30
2022-10-23T04:24:45.250Z,1.57
2022-10-23T04:27:18.538Z,1.27
2022-10-23T04:29:46.230Z,1.20
2022-10-23T04:32:14.230Z,1.40
2022-10-23T04:34:44.770Z,1.50
2022-10-23T04:37:12.427Z,1.73
2022-10-23T04:39:40.170Z,1.40
2022-10-23T04:42:07.867Z,1.30
2022-10-23T04:44:37.422Z,1.30
2022-10-23T04:47:05.137Z,1.40
2022-10-23T04:49:35.846Z,1.20
2022-10-23T04:52:16.667Z,1.30
2022-10-23T04:54:54.685Z,1.30
2022-10-23T04:57:32.608Z,1.20
2022-10-23T05:00:07.220Z,1.00
2022-10-23T05:02:42.223Z,1.57
2022-10-23T05:05:10.590Z,1.60
2022-10-23T05:07:54.656Z,1.37
2022-10-23T05:10:27.898Z,1.43
2022-10-23T05:13:03.061Z,1.50
2022-10-23T05:15:32.452Z,1.30
2022-10-23T05:18:03.570Z,1.40
2022-10-23T05:20:31.992Z,1.47
2022-10-23T05:23:01.269Z,1.37
2022-10-23T05:25:29.397Z,1.60
2022-10-23T05:28:05.373Z,1.43
2022-10-23T05:30:34.712Z,1.37
2022-10-23T05:33:03.440Z,1.57
2022-10-23T05:35:37.371Z,1.47
2022-10-23T05:38:05.541Z,1.30
2022-10-23T05:40:33.570Z,1.10
2022-10-23T05:43:06.322Z,1.20
2022-10-23T05:45:45.182Z,1.40
2022-10-23T05:48:41.375Z,1.40
2022-10-23T05:51:22.191Z,1.20
2022-10-23T05:53:58.043Z,1.47
2022-10-23T05:56:35.096Z,1.50
2022-10-23T05:59:10.056Z,1.70
2022-10-23T06:01:49.479Z,1.97
2022-10-23T06:04:25.452Z,1.73
2022-10-23T06:07:13.003Z,2.33
2022-10-23T06:09:40.944Z,2.10
2022-10-23T06:12:08.772Z,1.97
2022-10-23T06:14:36.507Z,2.10
2022-10-23T06:17:05.552Z,2.50
2022-10-23T06:19:35.573Z,2.23
2022-10-23T06:22:03.266Z,2.60
2022-10-23T06:24:44.457Z,3.00
2022-10-23T06:27:14.450Z,2.90
2022-10-23T06:29:44.803Z,3.70
2022-10-23T06:32:14.105Z,4.07
2022-10-23T06:34:47.342Z,3.57
2022-10-23T06:37:14.994Z,4.43
2022-10-23T06:39:46.308Z,3.83
2022-10-23T06:42:20.039Z,5.13
2022-10-23T06:45:07.877Z,4.45
2022-10-23T06:47:50.460Z,4.78
2022-10-23T06:50:31.081Z,4.87
2022-10-23T06:53:00.798Z,5.03
2022-10-23T06:55:29.094Z,4.82
2022-10-23T06:57:57.354Z,5.07
2022-10-23T07:00:25.027Z,4.57
2022-10-23T07:02:55.192Z,5.68
2022-10-23T07:05:23.728Z,5.28
2022-10-23T07:07:51.488Z,5.20
2022-10-23T07:10:25.831Z,4.60
2022-10-23T07:13:00.818Z,5.00
2022-10-23T07:15:37.625Z,4.35
2022-10-23T07:18:14.251Z,4.68
2022-10-23T07:21:01.791Z,3.70
2022-10-23T07:23:31.412Z,4.40
2022-10-23T07:26:03.798Z,3.95
2022-10-23T07:28:31.457Z,3.60
2022-10-23T07:30:59.442Z,3.38
2022-10-23T07:33:38.296Z,3.70
2022-10-23T07:36:14.728Z,3.05
2022-10-23T07:38:42.491Z,3.50
2022-10-23T07:41:12.312Z,3.75
2022-10-23T07:43:40.297Z,3.92
2022-10-23T07:46:09.827Z,3.53
2022-10-23T07:48:41.699Z,4.13
2022-10-23T07:51:12.082Z,3.53
2022-10-23T07:53:45.426Z,3.25
2022-10-23T07:56:25.228Z,2.90
2022-10-23T07:59:13.253Z,3.10
2022-10-23T08:01:43.434Z,2.38
2022-10-23T08:04:12.747Z,2.55
2022-10-23T08:06:49.197Z,2.78
2022-10-23T08:09:17.310Z,2.50
2022-10-23T08:11:45.045Z,2.92
2022-10-23T08:14:16.319Z,2.63
2022-10-23T08:16:46.176Z,2.58
2022-10-23T08:19:32.509Z,2.38
2022-10-23T08:22:01.809Z,2.50
2022-10-23T08:24:29.620Z,2.58
2022-10-23T08:26:58.542Z,2.88
2022-10-23T08:29:26.677Z,2.60
2022-10-23T08:31:57.305Z,2.70
2022-10-23T08:34:28.836Z,2.58
2022-10-23T08:36:58.251Z,2.75
2022-10-23T08:39:25.921Z,2.80
2022-10-23T08:42:04.101Z,3.10
2022-10-23T08:44:34.108Z,2.60
2022-10-23T08:47:04.600Z,2.42
2022-10-23T08:49:48.719Z,2.50
2022-10-23T08:52:21.241Z,2.05
2022-10-23T08:54:53.989Z,2.10
2022-10-23T08:57:22.956Z,2.15
2022-10-23T08:59:52.652Z,2.17
2022-10-23T09:02:22.448Z,2.08
2022-10-23T09:04:51.254Z,2.30
2022-10-23T09:07:29.522Z,2.13
2022-10-23T09:10:03.674Z,2.33
2022-10-23T09:12:32.237Z,2.50
2022-10-23T09:15:04.992Z,2.58
2022-10-23T09:17:33.412Z,2.58
2022-10-23T09:20:06.169Z,2.22
2022-10-23T09:22:35.085Z,2.47
2022-10-23T09:25:02.742Z,2.28
2022-10-23T09:27:30.630Z,2.55
2022-10-23T09:29:59.453Z,1.95
2022-10-23T09:32:36.802Z,1.42
2022-10-23T09:35:05.141Z,1.55
2022-10-23T09:37:34.284Z,1.30
2022-10-23T09:40:03.935Z,1.40
2022-10-23T09:42:31.600Z,1.10
2022-10-23T09:45:00.316Z,1.30
2022-10-23T09:47:28.748Z,1.23
2022-10-23T09:49:57.376Z,1.30
2022-10-23T09:52:26.749Z,1.00
2022-10-23T09:54:57.103Z,1.40
2022-10-23T09:57:29.914Z,1.15
2022-10-23T09:59:58.357Z,1.00
2022-10-23T10:02:28.114Z,1.40
2022-10-23T10:05:18.999Z,1.40
2022-10-23T10:07:54.604Z,1.05
2022-10-23T10:10:22.323Z,1.20
2022-10-23T10:12:55.506Z,1.20
2022-10-23T10:15:27.772Z,1.30
2022-10-23T10:18:02.204Z,1.52
2022-10-23T10:20:44.156Z,1.30
2022-10-23T10:23:18.261Z,1.17
2022-10-23T10:25:51.360Z,1.10
2022-10-23T10:28:26.542Z,1.20
2022-10-23T10:31:00.530Z,1.27
2022-10-23T10:33:31.731Z,1.02
2022-10-23T10:36:02.866Z,1.40
2022-10-23T10:38:43.461Z,1.38
2022-10-23T10:41:21.277Z,1.27
2022-10-23T10:43:56.831Z,1.08
2022-10-23T10:46:30.360Z,1.20
2022-10-23T10:49:00.653Z,1.48
2022-10-23T10:51:50.831Z,0.90
2022-10-23T10:54:26.251Z,1.23
2022-10-23T10:56:54.790Z,1.27
2022-10-23T10:59:24.874Z,1.58
2022-10-23T11:01:56.495Z,1.30
2022-10-23T11:04:30.049Z,1.40
2022-10-23T11:06:58.424Z,1.48
2022-10-23T11:09:44.919Z,1.55
2022-10-23T11:12:16.323Z,1.42
2022-10-23T11:14:46.004Z,1.52
2022-10-23T11:17:17.150Z,1.60
2022-10-23T11:19:47.518Z,1.90
2022-10-23T11:22:20.619Z,2.00
2022-10-23T11:24:58.764Z,1.65
2022-10-23T11:27:32.194Z,1.10
2022-10-23T11:30:09.502Z,1.50
2022-10-23T11:32:43.951Z,1.70
2022-10-23T11:35:20.914Z,1.50
2022-10-23T11:37:58.784Z,1.65
2022-10-23T11:40:26.697Z,2.10
2022-10-23T11:42:54.441Z,2.58
2022-10-23T11:45:33.352Z,2.10
2022-10-23T11:48:01.828Z,1.55
2022-10-23T11:50:34.117Z,2.17
2022-10-23T11:53:20.920Z,1.88
2022-10-23T11:55:58.488Z,1.95
2022-10-23T11:58:31.858Z,1.80
2022-10-23T12:01:03.495Z,1.58
2022-10-23T12:03:37.983Z,2.58
2022-10-23T12:06:06.640Z,1.27
2022-10-23T12:08:36.885Z,1.52
2022-10-23T12:11:04.621Z,1.63
2022-10-23T12:13:43.539Z,1.38
2022-10-23T12:16:13.881Z,3.42
2022-10-23T12:18:50.089Z,5.68
2022-10-23T12:21:19.414Z,1.42
2022-10-23T12:23:54.119Z,1.50
2022-10-23T12:26:26.988Z,2.22
2022-10-23T12:29:00.587Z,1.58
2022-10-23T12:31:34.582Z,1.40
2022-10-23T12:34:04.244Z,1.70
2022-10-23T12:36:41.360Z,1.70
2022-10-23T12:39:23.861Z,1.27
2022-10-23T12:41:51.577Z,1.55
2022-10-23T12:44:19.318Z,1.73
2022-10-23T12:46:50.660Z,2.15
2022-10-23T12:49:19.585Z,1.10
2022-10-23T12:51:55.541Z,1.45
2022-10-23T12:54:24.567Z,1.27
2022-10-23T12:56:53.066Z,1.88
2022-10-23T12:59:22.240Z,1.42
2022-10-23T13:01:53.024Z,1.55
2022-10-23T13:04:24.979Z,1.75
2022-10-23T13:06:53.095Z,1.40
2022-10-23T13:09:24.821Z,1.17
2022-10-23T13:12:09.901Z,1.98
2022-10-23T13:14:42.083Z,1.80
2022-10-23T13:17:13.514Z,1.73
2022-10-23T13:19:41.324Z,2.03
2022-10-23T13:22:16.332Z,1.52
2022-10-23T13:24:44.494Z,1.50
2022-10-23T13:27:25.879Z,4.40
2022-10-23T13:29:54.033Z,1.77
2022-10-23T13:32:25.024Z,1.20
2022-10-23T13:35:03.706Z,2.42
2022-10-23T13:37:38.269Z,1.48
2022-10-23T13:40:07.578Z,2.15
2022-10-23T13:42:35.330Z,1.73
2022-10-23T13:45:03.102Z,1.25
2022-10-23T13:47:32.020Z,1.42
2022-10-23T13:49:59.687Z,1.42
2022-10-23T13:52:27.366Z,1.58
2022-10-23T13:54:55.749Z,1.58
2022-10-23T13:57:23.398Z,1.77
2022-10-23T13:59:51.100Z,1.30
2022-10-23T14:02:20.771Z,1.10
2022-10-23T14:04:50.173Z,1.83
2022-10-23T14:07:19.197Z,1.55
2022-10-23T14:09:47.435Z,3.78
2022-10-23T14:12:15.835Z,1.67
2022-10-23T14:14:43.515Z,1.65
2022-10-23T14:17:11.176Z,1.33
2022-10-23T14:19:38.890Z,1.65
2022-10-23T14:22:07.934Z,1.55
2022-10-23T14:24:36.091Z,2.00
2022-10-23T14:27:04.782Z,1.40
2022-10-23T14:29:32.456Z,1.85
2022-10-23T14:32:00.199Z,1.35
2022-10-23T14:37:14.335Z,1.25
2022-10-23T14:40:00.756Z,1.67
2022-10-23T14:42:34.108Z,1.50
2022-10-23T14:45:02.549Z,1.48
2022-10-23T14:47:30.928Z,2.13
2022-10-23T14:49:58.725Z,1.98
2022-10-23T14:52:27.778Z,1.30
2022-10-23T14:54:55.506Z,1.10
2022-10-23T14:57:23.206Z,1.40
2022-10-23T14:59:51.105Z,1.90
2022-10-23T15:02:18.888Z,1.10
2022-10-23T15:04:46.569Z,2.10
2022-10-23T15:07:14.971Z,1.88
2022-10-23T15:09:44.278Z,2.08
2022-10-23T15:12:14.229Z,1.70
2022-10-23T15:14:41.883Z,1.92
2022-10-23T15:17:14.582Z,2.40
2022-10-23T15:19:43.564Z,2.13
2022-10-23T15:22:12.186Z,1.95
2022-10-23T15:24:39.872Z,2.17
2022-10-23T15:29:37.251Z,2.15
2022-10-23T15:32:07.600Z,2.30
2022-10-23T15:34:36.245Z,1.85
2022-10-23T15:37:04.273Z,2.10
2022-10-23T15:39:35.384Z,1.80
2022-10-23T15:42:04.159Z,1.65
2022-10-23T15:44:34.900Z,1.60
2022-10-23T15:47:02.827Z,1.73
2022-10-23T15:49:30.500Z,1.88
2022-10-23T15:51:58.494Z,1.67
2022-10-23T15:54:29.244Z,1.80
2022-10-23T15:56:59.649Z,1.50
2022-10-23T15:59:27.360Z,1.80
2022-10-23T16:01:56.441Z,1.73
2022-10-23T16:04:24.195Z,1.45
2022-10-23T16:06:51.863Z,1.48
2022-10-23T16:09:19.560Z,1.60
2022-10-23T16:11:47.404Z,1.73
2022-10-23T16:14:16.397Z,1.80
2022-10-23T16:16:44.240Z,1.30
2022-10-23T16:19:13.341Z,1.42
2022-10-23T16:21:41.217Z,2.08
2022-10-23T16:24:09.280Z,2.15
2022-10-23T16:26:37.317Z,1.65
2022-10-23T16:29:06.250Z,1.92
2022-10-23T16:31:33.995Z,2.15
2022-10-23T16:34:02.495Z,2.05
2022-10-23T16:36:31.904Z,1.75
2022-10-23T16:39:12.951Z,1.80
2022-10-23T16:41:52.046Z,2.45
2022-10-23T16:44:19.771Z,2.15
2022-10-23T16:46:57.919Z,1.77
2022-10-23T16:49:25.964Z,2.38
2022-10-23T16:51:55.167Z,1.55
2022-10-23T16:54:22.850Z,2.00
2022-10-23T16:56:51.574Z,2.13
2022-10-23T16:59:19.749Z,1.75
2022-10-23T17:01:47.543Z,1.63
2022-10-23T17:04:15.381Z,1.70
2022-10-23T17:06:44.327Z,1.95
2022-10-23T17:09:13.313Z,1.77
2022-10-23T17:11:42.238Z,1.60
2022-10-23T17:14:12.186Z,2.20
2022-10-23T17:16:42.066Z,1.92
2022-10-23T17:19:20.842Z,2.08
2022-10-23T17:21:54.674Z,1.77
2022-10-23T17:24:23.925Z,2.42
2022-10-23T17:26:51.921Z,1.95
2022-10-23T17:29:19.839Z,1.65
2022-10-23T17:31:48.355Z,1.92
2022-10-23T17:34:17.123Z,2.05
2022-10-23T17:36:46.392Z,1.75
2022-10-23T17:39:14.874Z,1.73
2022-10-23T17:41:45.281Z,1.38
2022-10-23T17:44:13.629Z,1.83
2022-10-23T17:46:41.823Z,1.85
2022-10-23T17:49:10.427Z,2.30
2022-10-23T17:51:38.231Z,2.08
2022-10-23T17:54:06.779Z,2.22
2022-10-23T17:56:36.652Z,1.50
2022-10-23T17:59:09.349Z,2.00
2022-10-23T18:01:40.794Z,2.20
2022-10-23T18:04:09.182Z,2.00
2022-10-23T18:06:37.775Z,2.10
2022-10-23T18:09:08.799Z,2.30
2022-10-23T18:11:38.339Z,2.50
2022-10-23T18:14:07.599Z,1.60
2022-10-23T18:16:35.929Z,1.50
2022-10-23T18:19:04.284Z,1.80
2022-10-23T18:21:32.097Z,2.25
2022-10-23T18:23:59.921Z,2.00
2022-10-23T18:26:29.419Z,1.52
2022-10-23T18:28:58.575Z,2.03
2022-10-23T18:31:30.198Z,2.00
2022-10-23T18:33:58.020Z,2.35
2022-10-23T18:36:27.626Z,2.63
2022-10-23T18:41:23.876Z,2.22
2022-10-23T18:43:51.640Z,2.50
2022-10-23T18:46:20.778Z,1.77
2022-10-23T18:48:51.500Z,2.30
2022-10-23T18:51:20.340Z,1.75
2022-10-23T18:53:48.466Z,1.70
2022-10-23T18:56:22.177Z,2.00
2022-10-23T18:58:50.437Z,1.88
2022-10-23T19:01:18.394Z,1.75
2022-10-23T19:03:46.232Z,1.80
2022-10-23T19:06:16.044Z,1.58
2022-10-23T19:08:45.202Z,1.92
2022-10-23T19:11:13.867Z,1.73
2022-10-23T19:13:42.829Z,1.70
2022-10-23T19:16:13.929Z,1.75
2022-10-23T19:18:43.986Z,1.33
2022-10-23T19:21:11.661Z,1.83
2022-10-23T19:23:41.445Z,1.98
2022-10-23T19:26:10.164Z,1.80
2022-10-23T19:28:38.512Z,2.05
2022-10-23T19:31:07.564Z,1.88
2022-10-23T19:33:36.270Z,2.22
2022-10-23T19:36:05.700Z,2.03
2022-10-23T19:38:34.952Z,1.92
2022-10-23T19:41:04.744Z,1.90
2022-10-23T19:43:32.398Z,1.60
2022-10-23T19:46:03.944Z,1.80
2022-10-23T19:48:34.193Z,2.03
2022-10-23T19:51:02.672Z,1.92
2022-10-23T19:53:30.368Z,1.92
2022-10-23T19:56:02.425Z,1.80
2022-10-23T19:58:32.242Z,1.92
2022-10-23T20:01:00.297Z,1.60
2022-10-23T20:03:28.846Z,2.20
2022-10-23T20:05:57.326Z,2.00
2022-10-23T20:08:25.016Z,2.20
2022-10-23T20:10:52.714Z,1.98
2022-10-23T20:13:20.907Z,2.13
2022-10-23T20:15:50.250Z,1.88
2022-10-23T20:18:17.911Z,2.15
2022-10-23T20:20:46.003Z,1.73
2022-10-23T20:23:13.636Z,2.28
2022-10-23T20:25:41.577Z,2.33
2022-10-23T20:28:11.563Z,1.65
2022-10-23T20:30:42.518Z,1.73
2022-10-23T20:33:11.487Z,2.10
2022-10-23T20:35:40.512Z,1.95
2022-10-23T20:38:08.674Z,1.50
2022-10-23T20:40:36.466Z,1.70
2022-10-23T20:43:04.753Z,2.20
2022-10-23T20:45:32.674Z,2.40
2022-10-23T20:48:00.365Z,2.55
2022-10-23T20:50:29.308Z,3.05
2022-10-23T20:52:57.002Z,3.17
2022-10-23T20:55:24.658Z,2.10
2022-10-23T20:57:52.355Z,2.30
2022-10-23T21:00:20.133Z,2.17
2022-10-23T21:02:49.960Z,2.80
2022-10-23T21:05:20.242Z,1.98
2022-10-23T21:07:49.296Z,1.60
2022-10-23T21:10:17.004Z,1.95
2022-10-23T21:12:44.812Z,1.90
2022-10-23T21:15:13.573Z,2.30
2022-10-23T21:17:41.727Z,2.00
2022-10-23T21:20:09.828Z,2.13
2022-10-23T21:22:37.495Z,1.83
2022-10-23T21:25:06.722Z,1.50
2022-10-23T21:27:34.347Z,1.88
2022-10-23T21:30:01.973Z,2.15
2022-10-23T21:32:29.699Z,2.50
2022-10-23T21:34:57.337Z,1.80
2022-10-23T21:37:25.918Z,2.30
2022-10-23T21:39:53.531Z,1.80
2022-10-23T21:42:22.744Z,1.95
2022-10-23T21:44:50.470Z,2.17
2022-10-23T21:47:18.957Z,1.88
2022-10-23T21:49:46.764Z,2.78
2022-10-23T21:52:17.621Z,2.30
2022-10-23T21:54:52.132Z,1.85
2022-10-23T21:57:22.154Z,1.90
2022-10-23T21:59:50.008Z,2.72
2022-10-23T22:02:17.782Z,2.20
2022-10-23T22:04:46.435Z,2.25
2022-10-23T22:07:14.867Z,2.55
2022-10-23T22:09:43.815Z,2.10
2022-10-23T22:12:11.880Z,2.45
2022-10-23T22:14:40.802Z,2.38
2022-10-23T22:17:09.279Z,2.30
2022-10-23T22:19:36.887Z,2.60
2022-10-23T22:22:04.587Z,2.75
2022-10-23T22:24:32.429Z,2.40
2022-10-23T22:27:00.098Z,2.22
2022-10-23T22:29:29.320Z,2.55
2022-10-23T22:31:58.622Z,2.50
2022-10-23T22:34:48.289Z,1.92
2022-10-23T22:37:15.639Z,2.05
2022-10-23T22:39:43.410Z,2.47
2022-10-23T22:42:11.121Z,2.03
2022-10-23T22:44:39.611Z,2.22
2022-10-23T22:47:08.600Z,1.88
2022-10-23T22:49:36.530Z,2.05
2022-10-23T22:52:05.256Z,2.60
2022-10-23T22:54:32.894Z,3.22
2022-10-23T22:57:00.555Z,1.83
2022-10-23T22:59:28.203Z,2.17
2022-10-23T23:01:56.315Z,2.92
2022-10-23T23:04:37.155Z,2.20
2022-10-23T23:07:05.497Z,2.80
2022-10-23T23:09:33.134Z,2.20
2022-10-23T23:12:00.734Z,2.22
2022-10-23T23:14:28.596Z,2.50
2022-10-23T23:16:56.249Z,2.38
2022-10-23T23:19:26.543Z,2.72
2022-10-23T23:21:55.770Z,2.58
2022-10-23T23:24:24.262Z,1.80
2022-10-23T23:26:52.096Z,2.80
2022-10-23T23:29:22.643Z,2.10
2022-10-23T23:31:50.487Z,2.30
2022-10-23T23:34:18.123Z,2.17
2022-10-23T23:36:47.079Z,2.40
2022-10-23T23:39:14.761Z,2.60
2022-10-23T23:41:43.305Z,2.28
2022-10-23T23:44:11.137Z,2.42
2022-10-23T23:46:38.809Z,2.35
2022-10-23T23:49:06.430Z,2.58
2022-10-23T23:51:34.082Z,2.33
2022-10-23T23:54:03.187Z,2.10
2022-10-23T23:56:31.960Z,2.22
2022-10-23T23:59:00.027Z,2.30
